sensor_id;sensor_type;location;lat;lon;timestamp;P1;durP1;ratioP1;P2;durP2;ratioP2
57985;SDS011;43788;42.670;23.330;2023-04-02T00:08:54;0.00;;;0.00;;
57985;SDS011;43788;42.670;23.330;2023-04-02T00:11:28;0.00;;;0.00;;
57985;SDS011;43788;42.670;23.330;2023-04-02T00:14:00;0.00;;;0.00;;
57985;SDS011;43788;42.670;23.330;2023-04-02T00:16:28;0.00;;;0.00;;
57985;SDS011;43788;42.670;23.330;2023-04-02T00:18:55;0.00;;;0.00;;
57985;SDS011;43788;42.670;23.330;2023-04-02T00:21:27;0.00;;;0.00;;
57985;SDS011;43788;42.670;23.330;2023-04-02T00:24:09;0.00;;;0.00;;
57985;SDS011;43788;42.670;23.330;2023-04-02T00:26:39;0.00;;;0.00;;
57985;SDS011;43788;42.670;23.330;2023-04-02T00:29:09;0.00;;;0.00;;
57985;SDS011;43788;42.670;23.330;2023-04-02T00:31:46;0.00;;;0.00;;
57985;SDS011;43788;42.670;23.330;2023-04-02T00:34:37;0.00;;;0.00;;
57985;SDS011;43788;42.670;23.330;2023-04-02T00:37:01;0.13;;;0.10;;
57985;SDS011;43788;42.670;23.330;2023-04-02T00:39:31;0.00;;;0.00;;
57985;SDS011;43788;42.670;23.330;2023-04-02T00:42:02;0.00;;;0.00;;
57985;SDS011;43788;42.670;23.330;2023-04-02T00:44:31;0.00;;;0.00;;
57985;SDS011;43788;42.670;23.330;2023-04-02T00:49:44;0.00;;;0.00;;
57985;SDS011;43788;42.670;23.330;2023-04-02T00:52:11;0.00;;;0.00;;
57985;SDS011;43788;42.670;23.330;2023-04-02T00:54:44;0.00;;;0.00;;
57985;SDS011;43788;42.670;23.330;2023-04-02T00:57:16;0.15;;;0.10;;
57985;SDS011;43788;42.670;23.330;2023-04-02T00:59:50;0.00;;;0.00;;
57985;SDS011;43788;42.670;23.330;2023-04-02T01:02:29;0.00;;;0.00;;
57985;SDS011;43788;42.670;23.330;2023-04-02T01:13:01;0.25;;;0.03;;
57985;SDS011;43788;42.670;23.330;2023-04-02T01:15:35;0.00;;;0.00;;
57985;SDS011;43788;42.670;23.330;2023-04-02T01:26:40;0.00;;;0.00;;
57985;SDS011;43788;42.670;23.330;2023-04-02T01:29:13;0.03;;;0.00;;
57985;SDS011;43788;42.670;23.330;2023-04-02T01:34:35;0.00;;;0.00;;
57985;SDS011;43788;42.670;23.330;2023-04-02T01:45:09;0.10;;;0.10;;
57985;SDS011;43788;42.670;23.330;2023-04-02T01:47:36;0.20;;;0.20;;
57985;SDS011;43788;42.670;23.330;2023-04-02T01:50:04;0.15;;;0.08;;
57985;SDS011;43788;42.670;23.330;2023-04-02T01:52:45;0.00;;;0.00;;
57985;SDS011;43788;42.670;23.330;2023-04-02T01:55:13;0.10;;;0.10;;
57985;SDS011;43788;42.670;23.330;2023-04-02T01:57:42;0.82;;;0.20;;
57985;SDS011;43788;42.670;23.330;2023-04-02T02:00:12;0.13;;;0.13;;
57985;SDS011;43788;42.670;23.330;2023-04-02T02:02:40;0.73;;;0.20;;
57985;SDS011;43788;42.670;23.330;2023-04-02T02:05:12;0.13;;;0.10;;
57985;SDS011;43788;42.670;23.330;2023-04-02T02:07:40;0.00;;;0.00;;
57985;SDS011;43788;42.670;23.330;2023-04-02T02:10:06;0.00;;;0.00;;
57985;SDS011;43788;42.670;23.330;2023-04-02T02:12:53;0.15;;;0.10;;
57985;SDS011;43788;42.670;23.330;2023-04-02T02:15:20;0.00;;;0.00;;
57985;SDS011;43788;42.670;23.330;2023-04-02T02:17:47;0.13;;;0.13;;
57985;SDS011;43788;42.670;23.330;2023-04-02T02:20:14;0.20;;;0.20;;
57985;SDS011;43788;42.670;23.330;2023-04-02T02:25:33;0.32;;;0.10;;
57985;SDS011;43788;42.670;23.330;2023-04-02T02:33:22;0.10;;;0.10;;
57985;SDS011;43788;42.670;23.330;2023-04-02T02:35:51;0.00;;;0.00;;
57985;SDS011;43788;42.670;23.330;2023-04-02T02:46:32;0.10;;;0.10;;
57985;SDS011;43788;42.670;23.330;2023-04-02T02:49:00;0.00;;;0.00;;
57985;SDS011;43788;42.670;23.330;2023-04-02T02:51:38;0.00;;;0.00;;
57985;SDS011;43788;42.670;23.330;2023-04-02T02:54:08;0.05;;;0.03;;
57985;SDS011;43788;42.670;23.330;2023-04-02T02:56:35;0.10;;;0.08;;
57985;SDS011;43788;42.670;23.330;2023-04-02T02:59:04;0.00;;;0.00;;
57985;SDS011;43788;42.670;23.330;2023-04-02T03:01:31;0.00;;;0.00;;
57985;SDS011;43788;42.670;23.330;2023-04-02T03:03:59;0.15;;;0.15;;
57985;SDS011;43788;42.670;23.330;2023-04-02T03:06:26;0.30;;;0.13;;
57985;SDS011;43788;42.670;23.330;2023-04-02T03:11:36;0.10;;;0.10;;
57985;SDS011;43788;42.670;23.330;2023-04-02T03:14:12;0.30;;;0.10;;
57985;SDS011;43788;42.670;23.330;2023-04-02T03:16:55;0.17;;;0.17;;
57985;SDS011;43788;42.670;23.330;2023-04-02T03:19:30;0.00;;;0.00;;
57985;SDS011;43788;42.670;23.330;2023-04-02T03:22:10;0.22;;;0.22;;
57985;SDS011;43788;42.670;23.330;2023-04-02T03:25:14;0.10;;;0.10;;
57985;SDS011;43788;42.670;23.330;2023-04-02T03:27:59;0.45;;;0.30;;
57985;SDS011;43788;42.670;23.330;2023-04-02T03:30:29;0.17;;;0.17;;
57985;SDS011;43788;42.670;23.330;2023-04-02T03:35:44;0.20;;;0.10;;
57985;SDS011;43788;42.670;23.330;2023-04-02T03:38:17;0.20;;;0.20;;
57985;SDS011;43788;42.670;23.330;2023-04-02T03:41:30;0.10;;;0.10;;
57985;SDS011;43788;42.670;23.330;2023-04-02T03:43:42;0.05;;;0.05;;
57985;SDS011;43788;42.670;23.330;2023-04-02T03:49:10;0.20;;;0.10;;
57985;SDS011;43788;42.670;23.330;2023-04-02T03:54:22;0.45;;;0.45;;
57985;SDS011;43788;42.670;23.330;2023-04-02T03:56:47;0.20;;;0.20;;
57985;SDS011;43788;42.670;23.330;2023-04-02T04:02:33;0.10;;;0.10;;
57985;SDS011;43788;42.670;23.330;2023-04-02T04:05:04;0.40;;;0.40;;
57985;SDS011;43788;42.670;23.330;2023-04-02T04:07:34;0.20;;;0.20;;
57985;SDS011;43788;42.670;23.330;2023-04-02T04:10:02;1.45;;;0.30;;
57985;SDS011;43788;42.670;23.330;2023-04-02T04:12:30;0.30;;;0.30;;
57985;SDS011;43788;42.670;23.330;2023-04-02T04:15:07;0.22;;;0.22;;
57985;SDS011;43788;42.670;23.330;2023-04-02T04:26:00;0.73;;;0.20;;
57985;SDS011;43788;42.670;23.330;2023-04-02T04:31:32;0.38;;;0.38;;
57985;SDS011;43788;42.670;23.330;2023-04-02T04:34:41;0.20;;;0.20;;
57985;SDS011;43788;42.670;23.330;2023-04-02T04:37:16;2.53;;;0.70;;
57985;SDS011;43788;42.670;23.330;2023-04-02T04:39:49;0.30;;;0.30;;
57985;SDS011;43788;42.670;23.330;2023-04-02T04:42:29;0.20;;;0.20;;
57985;SDS011;43788;42.670;23.330;2023-04-02T04:44:58;0.30;;;0.30;;
57985;SDS011;43788;42.670;23.330;2023-04-02T04:47:31;1.40;;;0.50;;
57985;SDS011;43788;42.670;23.330;2023-04-02T04:50:03;2.83;;;1.02;;
57985;SDS011;43788;42.670;23.330;2023-04-02T04:52:37;0.20;;;0.20;;
57985;SDS011;43788;42.670;23.330;2023-04-02T04:57:50;0.40;;;0.40;;
57985;SDS011;43788;42.670;23.330;2023-04-02T05:00:24;0.20;;;0.20;;
57985;SDS011;43788;42.670;23.330;2023-04-02T05:05:52;1.17;;;0.45;;
57985;SDS011;43788;42.670;23.330;2023-04-02T05:08:19;0.47;;;0.35;;
57985;SDS011;43788;42.670;23.330;2023-04-02T05:10:55;0.20;;;0.20;;
57985;SDS011;43788;42.670;23.330;2023-04-02T05:13:23;0.10;;;0.10;;
57985;SDS011;43788;42.670;23.330;2023-04-02T05:16:15;0.85;;;0.73;;
57985;SDS011;43788;42.670;23.330;2023-04-02T05:18:51;0.60;;;0.28;;
57985;SDS011;43788;42.670;23.330;2023-04-02T05:26:46;0.30;;;0.30;;
57985;SDS011;43788;42.670;23.330;2023-04-02T05:32:07;0.80;;;0.43;;
57985;SDS011;43788;42.670;23.330;2023-04-02T05:37:40;0.13;;;0.13;;
57985;SDS011;43788;42.670;23.330;2023-04-02T05:40:16;0.20;;;0.20;;
57985;SDS011;43788;42.670;23.330;2023-04-02T05:47:55;0.38;;;0.38;;
57985;SDS011;43788;42.670;23.330;2023-04-02T05:55:48;0.47;;;0.47;;
57985;SDS011;43788;42.670;23.330;2023-04-02T06:01:16;0.70;;;0.52;;
57985;SDS011;43788;42.670;23.330;2023-04-02T06:06:45;0.30;;;0.30;;
57985;SDS011;43788;42.670;23.330;2023-04-02T06:09:26;0.77;;;0.47;;
57985;SDS011;43788;42.670;23.330;2023-04-02T06:11:58;0.22;;;0.22;;
57985;SDS011;43788;42.670;23.330;2023-04-02T06:14:28;0.40;;;0.30;;
57985;SDS011;43788;42.670;23.330;2023-04-02T06:16:54;0.57;;;0.57;;
57985;SDS011;43788;42.670;23.330;2023-04-02T06:24:44;0.25;;;0.20;;
57985;SDS011;43788;42.670;23.330;2023-04-02T06:27:11;0.40;;;0.32;;
57985;SDS011;43788;42.670;23.330;2023-04-02T06:29:41;0.30;;;0.30;;
57985;SDS011;43788;42.670;23.330;2023-04-02T06:32:09;0.38;;;0.38;;
57985;SDS011;43788;42.670;23.330;2023-04-02T06:34:38;0.50;;;0.32;;
57985;SDS011;43788;42.670;23.330;2023-04-02T06:37:14;2.15;;;0.40;;
57985;SDS011;43788;42.670;23.330;2023-04-02T06:39:46;0.30;;;0.30;;
57985;SDS011;43788;42.670;23.330;2023-04-02T06:44:57;0.77;;;0.50;;
57985;SDS011;43788;42.670;23.330;2023-04-02T06:47:25;0.22;;;0.22;;
57985;SDS011;43788;42.670;23.330;2023-04-02T06:50:15;0.60;;;0.50;;
57985;SDS011;43788;42.670;23.330;2023-04-02T06:52:47;0.47;;;0.47;;
57985;SDS011;43788;42.670;23.330;2023-04-02T06:57:44;1.17;;;0.60;;
57985;SDS011;43788;42.670;23.330;2023-04-02T07:00:19;0.30;;;0.30;;
57985;SDS011;43788;42.670;23.330;2023-04-02T07:02:55;0.63;;;0.40;;
57985;SDS011;43788;42.670;23.330;2023-04-02T07:05:21;0.22;;;0.20;;
57985;SDS011;43788;42.670;23.330;2023-04-02T07:07:49;2.85;;;0.47;;
57985;SDS011;43788;42.670;23.330;2023-04-02T07:10:15;2.72;;;0.73;;
57985;SDS011;43788;42.670;23.330;2023-04-02T07:12:41;1.65;;;0.40;;
57985;SDS011;43788;42.670;23.330;2023-04-02T07:15:07;0.98;;;0.30;;
57985;SDS011;43788;42.670;23.330;2023-04-02T07:17:38;1.48;;;0.30;;
57985;SDS011;43788;42.670;23.330;2023-04-02T07:20:04;0.35;;;0.20;;
57985;SDS011;43788;42.670;23.330;2023-04-02T07:22:30;0.45;;;0.35;;
57985;SDS011;43788;42.670;23.330;2023-04-02T07:24:56;0.17;;;0.17;;
57985;SDS011;43788;42.670;23.330;2023-04-02T07:27:22;0.22;;;0.22;;
57985;SDS011;43788;42.670;23.330;2023-04-02T07:29:49;0.40;;;0.40;;
57985;SDS011;43788;42.670;23.330;2023-04-02T07:32:15;0.52;;;0.32;;
57985;SDS011;43788;42.670;23.330;2023-04-02T07:34:42;0.55;;;0.50;;
57985;SDS011;43788;42.670;23.330;2023-04-02T07:37:08;0.20;;;0.20;;
57985;SDS011;43788;42.670;23.330;2023-04-02T07:39:37;0.20;;;0.20;;
57985;SDS011;43788;42.670;23.330;2023-04-02T07:42:03;0.30;;;0.30;;
57985;SDS011;43788;42.670;23.330;2023-04-02T07:47:21;0.10;;;0.10;;
57985;SDS011;43788;42.670;23.330;2023-04-02T07:49:48;0.10;;;0.10;;
57985;SDS011;43788;42.670;23.330;2023-04-02T07:52:14;0.25;;;0.20;;
57985;SDS011;43788;42.670;23.330;2023-04-02T07:54:41;0.00;;;0.00;;
57985;SDS011;43788;42.670;23.330;2023-04-02T07:57:07;0.10;;;0.08;;
57985;SDS011;43788;42.670;23.330;2023-04-02T07:59:33;0.25;;;0.10;;
57985;SDS011;43788;42.670;23.330;2023-04-02T08:01:58;0.10;;;0.10;;
57985;SDS011;43788;42.670;23.330;2023-04-02T08:04:24;0.43;;;0.10;;
57985;SDS011;43788;42.670;23.330;2023-04-02T08:06:51;0.10;;;0.10;;
57985;SDS011;43788;42.670;23.330;2023-04-02T08:09:16;0.10;;;0.00;;
57985;SDS011;43788;42.670;23.330;2023-04-02T08:11:42;0.15;;;0.10;;
57985;SDS011;43788;42.670;23.330;2023-04-02T08:14:08;0.63;;;0.10;;
57985;SDS011;43788;42.670;23.330;2023-04-02T08:19:20;0.05;;;0.05;;
57985;SDS011;43788;42.670;23.330;2023-04-02T08:21:47;0.00;;;0.00;;
57985;SDS011;43788;42.670;23.330;2023-04-02T08:24:18;0.03;;;0.03;;
57985;SDS011;43788;42.670;23.330;2023-04-02T08:26:44;0.00;;;0.00;;
57985;SDS011;43788;42.670;23.330;2023-04-02T08:29:10;0.00;;;0.00;;
57985;SDS011;43788;42.670;23.330;2023-04-02T08:31:37;0.20;;;0.00;;
57985;SDS011;43788;42.670;23.330;2023-04-02T08:34:02;0.00;;;0.00;;
57985;SDS011;43788;42.670;23.330;2023-04-02T08:36:29;0.50;;;0.20;;
57985;SDS011;43788;42.670;23.330;2023-04-02T08:38:58;0.00;;;0.00;;
57985;SDS011;43788;42.670;23.330;2023-04-02T08:41:24;0.10;;;0.10;;
57985;SDS011;43788;42.670;23.330;2023-04-02T08:49:15;0.00;;;0.00;;
57985;SDS011;43788;42.670;23.330;2023-04-02T08:51:43;0.05;;;0.05;;
57985;SDS011;43788;42.670;23.330;2023-04-02T08:59:36;0.10;;;0.10;;
57985;SDS011;43788;42.670;23.330;2023-04-02T09:05:14;0.00;;;0.00;;
57985;SDS011;43788;42.670;23.330;2023-04-02T09:07:43;0.05;;;0.05;;
57985;SDS011;43788;42.670;23.330;2023-04-02T09:10:14;0.20;;;0.20;;
57985;SDS011;43788;42.670;23.330;2023-04-02T09:12:41;0.40;;;0.00;;
57985;SDS011;43788;42.670;23.330;2023-04-02T09:20:56;0.03;;;0.03;;
57985;SDS011;43788;42.670;23.330;2023-04-02T09:23:24;0.20;;;0.10;;
57985;SDS011;43788;42.670;23.330;2023-04-02T09:25:51;0.10;;;0.10;;
57985;SDS011;43788;42.670;23.330;2023-04-02T09:28:19;0.10;;;0.10;;
57985;SDS011;43788;42.670;23.330;2023-04-02T09:30:58;0.03;;;0.03;;
57985;SDS011;43788;42.670;23.330;2023-04-02T09:33:41;0.10;;;0.10;;
57985;SDS011;43788;42.670;23.330;2023-04-02T09:39:04;0.00;;;0.00;;
57985;SDS011;43788;42.670;23.330;2023-04-02T09:41:43;0.20;;;0.20;;
57985;SDS011;43788;42.670;23.330;2023-04-02T09:44:23;0.08;;;0.08;;
57985;SDS011;43788;42.670;23.330;2023-04-02T09:46:59;0.10;;;0.10;;
57985;SDS011;43788;42.670;23.330;2023-04-02T09:49:37;0.40;;;0.03;;
57985;SDS011;43788;42.670;23.330;2023-04-02T09:57:42;0.10;;;0.10;;
57985;SDS011;43788;42.670;23.330;2023-04-02T10:00:15;0.10;;;0.10;;
57985;SDS011;43788;42.670;23.330;2023-04-02T10:02:43;0.10;;;0.10;;
57985;SDS011;43788;42.670;23.330;2023-04-02T10:05:17;0.10;;;0.10;;
57985;SDS011;43788;42.670;23.330;2023-04-02T10:07:45;0.00;;;0.00;;
57985;SDS011;43788;42.670;23.330;2023-04-02T10:12:59;0.00;;;0.00;;
57985;SDS011;43788;42.670;23.330;2023-04-02T10:15:30;0.00;;;0.00;;
57985;SDS011;43788;42.670;23.330;2023-04-02T10:18:08;0.00;;;0.00;;
57985;SDS011;43788;42.670;23.330;2023-04-02T10:20:37;0.00;;;0.00;;
57985;SDS011;43788;42.670;23.330;2023-04-02T10:26:37;0.10;;;0.10;;
57985;SDS011;43788;42.670;23.330;2023-04-02T10:29:25;1.88;;;0.20;;
57985;SDS011;43788;42.670;23.330;2023-04-02T10:40:11;0.10;;;0.10;;
57985;SDS011;43788;42.670;23.330;2023-04-02T10:46:05;0.25;;;0.25;;
57985;SDS011;43788;42.670;23.330;2023-04-02T10:54:38;0.20;;;0.10;;
57985;SDS011;43788;42.670;23.330;2023-04-02T10:59:46;0.00;;;0.00;;
57985;SDS011;43788;42.670;23.330;2023-04-02T11:05:24;0.10;;;0.10;;
57985;SDS011;43788;42.670;23.330;2023-04-02T11:07:59;0.00;;;0.00;;
57985;SDS011;43788;42.670;23.330;2023-04-02T11:10:29;0.10;;;0.00;;
57985;SDS011;43788;42.670;23.330;2023-04-02T11:13:00;0.00;;;0.00;;
57985;SDS011;43788;42.670;23.330;2023-04-02T11:15:30;0.05;;;0.05;;
57985;SDS011;43788;42.670;23.330;2023-04-02T11:17:55;0.10;;;0.10;;
57985;SDS011;43788;42.670;23.330;2023-04-02T11:23:12;0.22;;;0.10;;
57985;SDS011;43788;42.670;23.330;2023-04-02T11:25:44;0.25;;;0.08;;
57985;SDS011;43788;42.670;23.330;2023-04-02T11:30:46;0.00;;;0.00;;
57985;SDS011;43788;42.670;23.330;2023-04-02T11:39:11;0.00;;;0.00;;
57985;SDS011;43788;42.670;23.330;2023-04-02T11:44:51;0.03;;;0.00;;
57985;SDS011;43788;42.670;23.330;2023-04-02T11:47:22;0.00;;;0.00;;
57985;SDS011;43788;42.670;23.330;2023-04-02T11:52:39;0.10;;;0.10;;
57985;SDS011;43788;42.670;23.330;2023-04-02T11:55:23;0.00;;;0.00;;
57985;SDS011;43788;42.670;23.330;2023-04-02T12:01:19;0.10;;;0.10;;
57985;SDS011;43788;42.670;23.330;2023-04-02T12:09:41;0.00;;;0.00;;
57985;SDS011;43788;42.670;23.330;2023-04-02T12:12:16;0.10;;;0.10;;
57985;SDS011;43788;42.670;23.330;2023-04-02T12:14:50;0.00;;;0.00;;
57985;SDS011;43788;42.670;23.330;2023-04-02T12:17:29;0.05;;;0.05;;
57985;SDS011;43788;42.670;23.330;2023-04-02T12:20:02;0.00;;;0.00;;
57985;SDS011;43788;42.670;23.330;2023-04-02T12:22:39;0.00;;;0.00;;
57985;SDS011;43788;42.670;23.330;2023-04-02T12:30:35;0.10;;;0.10;;
57985;SDS011;43788;42.670;23.330;2023-04-02T12:35:46;0.00;;;0.00;;
57985;SDS011;43788;42.670;23.330;2023-04-02T12:38:20;0.05;;;0.05;;
57985;SDS011;43788;42.670;23.330;2023-04-02T12:40:53;0.00;;;0.00;;
57985;SDS011;43788;42.670;23.330;2023-04-02T12:43:54;0.00;;;0.00;;
57985;SDS011;43788;42.670;23.330;2023-04-02T12:46:24;0.03;;;0.03;;
57985;SDS011;43788;42.670;23.330;2023-04-02T12:48:51;0.10;;;0.10;;
57985;SDS011;43788;42.670;23.330;2023-04-02T12:51:18;0.10;;;0.10;;
57985;SDS011;43788;42.670;23.330;2023-04-02T12:53:47;0.15;;;0.13;;
57985;SDS011;43788;42.670;23.330;2023-04-02T12:56:18;0.10;;;0.00;;
57985;SDS011;43788;42.670;23.330;2023-04-02T12:58:50;0.10;;;0.00;;
57985;SDS011;43788;42.670;23.330;2023-04-02T13:01:20;0.20;;;0.20;;
57985;SDS011;43788;42.670;23.330;2023-04-02T13:04:08;2.92;;;0.30;;
57985;SDS011;43788;42.670;23.330;2023-04-02T13:06:38;0.03;;;0.00;;
57985;SDS011;43788;42.670;23.330;2023-04-02T13:09:06;0.10;;;0.10;;
57985;SDS011;43788;42.670;23.330;2023-04-02T13:11:50;0.10;;;0.10;;
57985;SDS011;43788;42.670;23.330;2023-04-02T13:14:16;0.10;;;0.10;;
57985;SDS011;43788;42.670;23.330;2023-04-02T13:16:43;0.10;;;0.10;;
57985;SDS011;43788;42.670;23.330;2023-04-02T13:21:43;0.00;;;0.00;;
57985;SDS011;43788;42.670;23.330;2023-04-02T13:24:16;0.00;;;0.00;;
57985;SDS011;43788;42.670;23.330;2023-04-02T13:26:45;0.05;;;0.00;;
57985;SDS011;43788;42.670;23.330;2023-04-02T13:31:47;0.10;;;0.10;;
57985;SDS011;43788;42.670;23.330;2023-04-02T13:34:13;0.00;;;0.00;;
57985;SDS011;43788;42.670;23.330;2023-04-02T13:36:38;0.10;;;0.10;;
57985;SDS011;43788;42.670;23.330;2023-04-02T13:39:04;0.00;;;0.00;;
57985;SDS011;43788;42.670;23.330;2023-04-02T13:41:54;0.00;;;0.00;;
57985;SDS011;43788;42.670;23.330;2023-04-02T13:44:24;0.10;;;0.10;;
57985;SDS011;43788;42.670;23.330;2023-04-02T13:46:52;0.10;;;0.10;;
57985;SDS011;43788;42.670;23.330;2023-04-02T13:49:19;0.00;;;0.00;;
57985;SDS011;43788;42.670;23.330;2023-04-02T13:51:48;0.00;;;0.00;;
57985;SDS011;43788;42.670;23.330;2023-04-02T13:56:46;0.10;;;0.10;;
57985;SDS011;43788;42.670;23.330;2023-04-02T13:59:11;0.10;;;0.10;;
57985;SDS011;43788;42.670;23.330;2023-04-02T14:01:37;0.00;;;0.00;;
57985;SDS011;43788;42.670;23.330;2023-04-02T14:04:04;0.00;;;0.00;;
57985;SDS011;43788;42.670;23.330;2023-04-02T14:09:32;0.00;;;0.00;;
57985;SDS011;43788;42.670;23.330;2023-04-02T14:15:36;0.08;;;0.08;;
57985;SDS011;43788;42.670;23.330;2023-04-02T14:21:13;0.00;;;0.00;;
57985;SDS011;43788;42.670;23.330;2023-04-02T14:29:47;0.35;;;0.17;;
57985;SDS011;43788;42.670;23.330;2023-04-02T14:32:23;0.00;;;0.00;;
57985;SDS011;43788;42.670;23.330;2023-04-02T14:40:32;0.00;;;0.00;;
57985;SDS011;43788;42.670;23.330;2023-04-02T14:43:18;0.05;;;0.05;;
57985;SDS011;43788;42.670;23.330;2023-04-02T14:45:58;0.10;;;0.10;;
57985;SDS011;43788;42.670;23.330;2023-04-02T14:56:52;0.38;;;0.10;;
57985;SDS011;43788;42.670;23.330;2023-04-02T15:01:48;0.00;;;0.00;;
57985;SDS011;43788;42.670;23.330;2023-04-02T15:04:36;0.03;;;0.03;;
57985;SDS011;43788;42.670;23.330;2023-04-02T15:07:06;0.00;;;0.00;;
57985;SDS011;43788;42.670;23.330;2023-04-02T15:09:41;0.10;;;0.10;;
57985;SDS011;43788;42.670;23.330;2023-04-02T15:12:19;0.10;;;0.10;;
57985;SDS011;43788;42.670;23.330;2023-04-02T15:14:49;0.00;;;0.00;;
57985;SDS011;43788;42.670;23.330;2023-04-02T15:17:20;0.10;;;0.08;;
57985;SDS011;43788;42.670;23.330;2023-04-02T15:19:46;0.10;;;0.10;;
57985;SDS011;43788;42.670;23.330;2023-04-02T15:25:54;0.00;;;0.00;;
57985;SDS011;43788;42.670;23.330;2023-04-02T15:30:41;0.10;;;0.10;;
57985;SDS011;43788;42.670;23.330;2023-04-02T15:35:57;0.15;;;0.15;;
57985;SDS011;43788;42.670;23.330;2023-04-02T15:41:07;0.00;;;0.00;;
57985;SDS011;43788;42.670;23.330;2023-04-02T15:43:41;0.10;;;0.10;;
57985;SDS011;43788;42.670;23.330;2023-04-02T15:46:25;0.00;;;0.00;;
57985;SDS011;43788;42.670;23.330;2023-04-02T15:52:24;0.10;;;0.10;;
57985;SDS011;43788;42.670;23.330;2023-04-02T16:11:44;0.65;;;0.10;;
57985;SDS011;43788;42.670;23.330;2023-04-02T16:16:59;0.00;;;0.00;;
57985;SDS011;43788;42.670;23.330;2023-04-02T16:24:41;0.28;;;0.20;;
57985;SDS011;43788;42.670;23.330;2023-04-02T16:35:31;0.10;;;0.10;;
57985;SDS011;43788;42.670;23.330;2023-04-02T16:57:17;0.10;;;0.10;;
57985;SDS011;43788;42.670;23.330;2023-04-02T17:07:50;0.20;;;0.20;;
57985;SDS011;43788;42.670;23.330;2023-04-02T17:18:43;0.30;;;0.30;;
57985;SDS011;43788;42.670;23.330;2023-04-02T17:21:12;0.22;;;0.22;;
57985;SDS011;43788;42.670;23.330;2023-04-02T17:26:20;0.20;;;0.20;;
57985;SDS011;43788;42.670;23.330;2023-04-02T17:28:49;0.40;;;0.40;;
57985;SDS011;43788;42.670;23.330;2023-04-02T17:31:22;0.30;;;0.30;;
57985;SDS011;43788;42.670;23.330;2023-04-02T17:33:50;0.32;;;0.32;;
57985;SDS011;43788;42.670;23.330;2023-04-02T17:36:28;2.22;;;0.55;;
57985;SDS011;43788;42.670;23.330;2023-04-02T17:41:55;0.90;;;0.45;;
57985;SDS011;43788;42.670;23.330;2023-04-02T17:50:28;0.30;;;0.30;;
57985;SDS011;43788;42.670;23.330;2023-04-02T18:03:39;0.40;;;0.17;;
57985;SDS011;43788;42.670;23.330;2023-04-02T18:06:30;0.30;;;0.30;;
57985;SDS011;43788;42.670;23.330;2023-04-02T18:20:22;0.25;;;0.25;;
57985;SDS011;43788;42.670;23.330;2023-04-02T18:23:06;0.20;;;0.20;;
57985;SDS011;43788;42.670;23.330;2023-04-02T18:25:58;0.22;;;0.20;;
57985;SDS011;43788;42.670;23.330;2023-04-02T18:41:57;3.33;;;0.20;;
57985;SDS011;43788;42.670;23.330;2023-04-02T18:52:40;0.25;;;0.20;;
57985;SDS011;43788;42.670;23.330;2023-04-02T18:55:12;0.30;;;0.30;;
57985;SDS011;43788;42.670;23.330;2023-04-02T18:57:45;0.55;;;0.40;;
57985;SDS011;43788;42.670;23.330;2023-04-02T19:00:28;0.55;;;0.32;;
57985;SDS011;43788;42.670;23.330;2023-04-02T19:08:53;0.30;;;0.30;;
57985;SDS011;43788;42.670;23.330;2023-04-02T19:14:12;0.50;;;0.50;;
57985;SDS011;43788;42.670;23.330;2023-04-02T19:27:42;0.17;;;0.13;;
57985;SDS011;43788;42.670;23.330;2023-04-02T19:35:54;0.20;;;0.20;;
57985;SDS011;43788;42.670;23.330;2023-04-02T19:44:15;2.75;;;0.40;;
57985;SDS011;43788;42.670;23.330;2023-04-02T19:46:42;0.30;;;0.30;;
57985;SDS011;43788;42.670;23.330;2023-04-02T19:51:36;0.40;;;0.40;;
57985;SDS011;43788;42.670;23.330;2023-04-02T19:54:02;0.30;;;0.30;;
57985;SDS011;43788;42.670;23.330;2023-04-02T19:59:19;0.30;;;0.22;;
57985;SDS011;43788;42.670;23.330;2023-04-02T20:01:45;0.20;;;0.20;;
57985;SDS011;43788;42.670;23.330;2023-04-02T20:04:23;0.20;;;0.20;;
57985;SDS011;43788;42.670;23.330;2023-04-02T20:06:52;0.30;;;0.30;;
57985;SDS011;43788;42.670;23.330;2023-04-02T20:09:18;0.28;;;0.20;;
57985;SDS011;43788;42.670;23.330;2023-04-02T20:11:47;0.52;;;0.30;;
57985;SDS011;43788;42.670;23.330;2023-04-02T20:14:14;0.15;;;0.15;;
57985;SDS011;43788;42.670;23.330;2023-04-02T20:16:39;1.20;;;0.20;;
57985;SDS011;43788;42.670;23.330;2023-04-02T20:19:05;0.20;;;0.20;;
57985;SDS011;43788;42.670;23.330;2023-04-02T20:24:24;0.20;;;0.20;;
57985;SDS011;43788;42.670;23.330;2023-04-02T20:26:49;0.10;;;0.10;;
57985;SDS011;43788;42.670;23.330;2023-04-02T20:29:15;0.10;;;0.10;;
57985;SDS011;43788;42.670;23.330;2023-04-02T20:31:40;0.20;;;0.20;;
57985;SDS011;43788;42.670;23.330;2023-04-02T20:34:07;0.20;;;0.20;;
57985;SDS011;43788;42.670;23.330;2023-04-02T20:36:33;0.10;;;0.10;;
57985;SDS011;43788;42.670;23.330;2023-04-02T20:38:58;0.20;;;0.20;;
57985;SDS011;43788;42.670;23.330;2023-04-02T20:41:24;0.20;;;0.20;;
57985;SDS011;43788;42.670;23.330;2023-04-02T20:43:50;0.30;;;0.30;;
57985;SDS011;43788;42.670;23.330;2023-04-02T20:46:16;0.10;;;0.10;;
57985;SDS011;43788;42.670;23.330;2023-04-02T20:48:42;0.40;;;0.20;;
57985;SDS011;43788;42.670;23.330;2023-04-02T20:54:02;0.40;;;0.40;;
57985;SDS011;43788;42.670;23.330;2023-04-02T20:56:28;2.50;;;0.38;;
57985;SDS011;43788;42.670;23.330;2023-04-02T20:58:53;0.80;;;0.40;;
57985;SDS011;43788;42.670;23.330;2023-04-02T21:01:22;0.22;;;0.22;;
57985;SDS011;43788;42.670;23.330;2023-04-02T21:03:53;0.30;;;0.30;;
57985;SDS011;43788;42.670;23.330;2023-04-02T21:06:20;1.75;;;0.68;;
57985;SDS011;43788;42.670;23.330;2023-04-02T21:08:48;0.20;;;0.20;;
57985;SDS011;43788;42.670;23.330;2023-04-02T21:11:14;0.20;;;0.20;;
57985;SDS011;43788;42.670;23.330;2023-04-02T21:13:40;0.40;;;0.40;;
57985;SDS011;43788;42.670;23.330;2023-04-02T21:16:14;0.30;;;0.30;;
57985;SDS011;43788;42.670;23.330;2023-04-02T21:18:43;0.30;;;0.30;;
57985;SDS011;43788;42.670;23.330;2023-04-02T21:21:08;0.52;;;0.50;;
57985;SDS011;43788;42.670;23.330;2023-04-02T21:23:38;0.20;;;0.20;;
57985;SDS011;43788;42.670;23.330;2023-04-02T21:26:05;0.93;;;0.40;;
57985;SDS011;43788;42.670;23.330;2023-04-02T21:28:32;0.25;;;0.20;;
57985;SDS011;43788;42.670;23.330;2023-04-02T21:31:02;0.28;;;0.28;;
57985;SDS011;43788;42.670;23.330;2023-04-02T21:33:35;0.93;;;0.32;;
57985;SDS011;43788;42.670;23.330;2023-04-02T21:36:11;0.30;;;0.30;;
57985;SDS011;43788;42.670;23.330;2023-04-02T21:38:52;0.82;;;0.35;;
57985;SDS011;43788;42.670;23.330;2023-04-02T21:41:29;0.32;;;0.28;;
57985;SDS011;43788;42.670;23.330;2023-04-02T21:43:56;0.60;;;0.28;;
57985;SDS011;43788;42.670;23.330;2023-04-02T21:46:24;0.40;;;0.40;;
57985;SDS011;43788;42.670;23.330;2023-04-02T21:48:51;0.80;;;0.50;;
57985;SDS011;43788;42.670;23.330;2023-04-02T21:51:19;0.40;;;0.40;;
57985;SDS011;43788;42.670;23.330;2023-04-02T21:53:45;0.38;;;0.38;;
57985;SDS011;43788;42.670;23.330;2023-04-02T21:56:12;0.50;;;0.40;;
57985;SDS011;43788;42.670;23.330;2023-04-02T21:58:40;0.63;;;0.63;;
57985;SDS011;43788;42.670;23.330;2023-04-02T22:01:07;0.70;;;0.50;;
57985;SDS011;43788;42.670;23.330;2023-04-02T22:03:34;1.25;;;0.60;;
57985;SDS011;43788;42.670;23.330;2023-04-02T22:06:01;0.80;;;0.52;;
57985;SDS011;43788;42.670;23.330;2023-04-02T22:08:31;0.50;;;0.35;;
57985;SDS011;43788;42.670;23.330;2023-04-02T22:11:03;0.40;;;0.35;;
57985;SDS011;43788;42.670;23.330;2023-04-02T22:13:30;0.30;;;0.30;;
57985;SDS011;43788;42.670;23.330;2023-04-02T22:16:02;0.50;;;0.30;;
57985;SDS011;43788;42.670;23.330;2023-04-02T22:18:30;0.25;;;0.25;;